Terminal Aerodrome Forecast
Issued by NWS

Current Version | Previous Version | Text Only | Print | Product List | Glossary Off
Versions: 1 2 3 4 5 6 7 8 9 10 11

000
FTUS44 KSJT 162300
TAFBBD
TAF
KBBD 162340Z 1700/1724 16015KT P6SM SCT250
     FM170200 14012KT P6SM BKN250
     FM170800 14012KT P6SM BKN015
     FM171800 13008KT P6SM SCT025=

USA.gov is the U.S. government's official web portal to all federal, state and local government web resources and services.